createdAt,value
2023-04-06T00:01:18.428Z,4.82
2023-04-06T00:03:45.850Z,5.57
2023-04-06T00:06:14.077Z,5.38
2023-04-06T00:08:57.630Z,4.63
2023-04-06T00:11:24.905Z,5.50
2023-04-06T00:13:52.247Z,4.38
2023-04-06T00:16:19.603Z,5.95
2023-04-06T00:18:47.048Z,5.57
2023-04-06T00:21:15.177Z,5.70
2023-04-06T00:23:42.838Z,5.72
2023-04-06T00:26:11.633Z,5.28
2023-04-06T00:28:42.326Z,5.45
2023-04-06T00:31:09.645Z,5.32
2023-04-06T00:33:39.974Z,6.07
2023-04-06T00:38:34.328Z,6.00
2023-04-06T00:41:01.590Z,6.30
2023-04-06T00:43:28.910Z,5.18
2023-04-06T00:45:56.682Z,6.30
2023-04-06T00:48:24.036Z,6.05
2023-04-06T00:50:51.391Z,6.53
2023-04-06T00:53:18.670Z,6.03
2023-04-06T00:55:46.449Z,6.22
2023-04-06T00:58:13.937Z,5.85
2023-04-06T01:01:04.099Z,6.47
2023-04-06T01:03:31.514Z,5.60
2023-04-06T01:05:59.404Z,5.70
2023-04-06T01:08:33.051Z,6.20
2023-04-06T01:11:13.379Z,6.38
2023-04-06T01:13:40.928Z,6.13
2023-04-06T01:16:15.741Z,5.72
2023-04-06T01:18:51.123Z,5.75
2023-04-06T01:21:26.420Z,5.93
2023-04-06T01:24:11.988Z,6.18
2023-04-06T01:27:04.846Z,5.38
2023-04-06T01:30:04.735Z,6.00
2023-04-06T01:33:04.242Z,5.40
2023-04-06T01:35:51.664Z,6.32
2023-04-06T01:38:21.312Z,5.70
2023-04-06T01:40:53.233Z,5.57
2023-04-06T01:43:23.978Z,5.68
2023-04-06T01:46:05.470Z,5.47
2023-04-06T01:48:37.471Z,6.28
2023-04-06T01:51:14.992Z,6.22
2023-04-06T01:53:53.675Z,6.30
2023-04-06T01:56:24.476Z,5.20
2023-04-06T02:01:38.282Z,5.60
2023-04-06T02:04:06.044Z,6.05
2023-04-06T02:06:33.743Z,4.85
2023-04-06T02:09:02.789Z,5.50
2023-04-06T02:11:30.065Z,5.68
2023-04-06T02:13:57.779Z,5.55
2023-04-06T02:16:29.845Z,4.93
2023-04-06T02:18:57.294Z,5.32
2023-04-06T02:21:24.518Z,5.45
2023-04-06T02:23:51.804Z,5.30
2023-04-06T02:26:19.081Z,6.00
2023-04-06T02:28:46.473Z,5.13
2023-04-06T02:31:15.974Z,5.60
2023-04-06T02:33:45.043Z,6.50
2023-04-06T02:36:13.890Z,5.75
2023-04-06T02:38:41.210Z,6.10
2023-04-06T02:41:08.542Z,4.93
2023-04-06T02:43:36.023Z,5.38
2023-04-06T02:46:13.427Z,6.32
2023-04-06T02:48:40.841Z,5.45
2023-04-06T02:51:08.105Z,5.18
2023-04-06T02:53:36.521Z,5.70
2023-04-06T02:56:03.990Z,5.18
2023-04-06T02:58:45.366Z,5.82
2023-04-06T03:01:12.832Z,5.95
2023-04-06T03:03:42.265Z,5.60
2023-04-06T03:06:16.537Z,5.13
2023-04-06T03:08:44.440Z,5.40
2023-04-06T03:11:12.305Z,5.72
2023-04-06T03:16:11.045Z,5.22
2023-04-06T03:18:38.706Z,6.15
2023-04-06T03:21:06.651Z,5.00
2023-04-06T03:23:44.957Z,5.57
2023-04-06T03:26:12.341Z,5.90
2023-04-06T03:28:39.733Z,6.63
2023-04-06T03:31:08.082Z,6.80
2023-04-06T03:33:58.425Z,6.75
2023-04-06T03:36:31.846Z,5.13
2023-04-06T03:38:59.892Z,5.70
2023-04-06T03:41:27.431Z,6.45
2023-04-06T03:44:11.797Z,5.47
2023-04-06T03:46:39.114Z,6.28
2023-04-06T03:49:06.577Z,5.72
2023-04-06T03:51:34.926Z,5.45
2023-04-06T03:54:02.583Z,6.85
2023-04-06T03:56:29.820Z,5.82
2023-04-06T03:58:57.191Z,5.30
2023-04-06T04:01:24.523Z,6.28
2023-04-06T04:03:52.589Z,6.35
2023-04-06T04:06:19.950Z,6.70
2023-04-06T04:08:47.330Z,6.07
2023-04-06T04:11:16.063Z,5.68
2023-04-06T04:13:43.731Z,5.43
2023-04-06T04:16:11.398Z,6.93
2023-04-06T04:18:38.725Z,7.00
2023-04-06T04:21:07.341Z,6.05
2023-04-06T04:23:37.125Z,5.88
2023-04-06T04:26:04.786Z,6.32
2023-04-06T04:28:32.249Z,6.00
2023-04-06T04:30:59.493Z,6.60
2023-04-06T04:33:28.397Z,7.10
2023-04-06T04:35:57.533Z,5.97
2023-04-06T04:38:28.288Z,7.20
2023-04-06T04:40:57.616Z,7.93
2023-04-06T04:43:25.403Z,6.53
2023-04-06T04:45:53.566Z,6.93
2023-04-06T04:48:37.196Z,6.50
2023-04-06T04:51:07.077Z,7.18
2023-04-06T04:53:53.074Z,7.63
2023-04-06T04:56:25.289Z,6.75
2023-04-06T04:59:14.797Z,6.72
2023-04-06T05:01:54.833Z,7.10
2023-04-06T05:04:27.517Z,7.25
2023-04-06T05:07:05.775Z,6.90
2023-04-06T05:09:33.607Z,6.72
2023-04-06T05:12:01.558Z,7.05
2023-04-06T05:14:31.674Z,7.28
2023-04-06T05:17:00.507Z,7.10
2023-04-06T05:19:28.046Z,5.93
2023-04-06T05:21:55.417Z,6.45
2023-04-06T05:24:23.058Z,6.40
2023-04-06T05:26:51.077Z,7.65
2023-04-06T05:29:23.495Z,7.15
2023-04-06T05:31:51.034Z,6.43
2023-04-06T05:34:18.500Z,7.13
2023-04-06T05:37:01.145Z,7.80
2023-04-06T05:39:28.517Z,6.65
2023-04-06T05:41:56.191Z,6.40
2023-04-06T05:47:09.059Z,6.95
2023-04-06T05:49:44.078Z,6.70
2023-04-06T05:52:17.205Z,7.68
2023-04-06T05:57:14.846Z,7.82
2023-04-06T05:59:42.556Z,7.97
2023-04-06T06:02:12.127Z,7.95
2023-04-06T06:04:43.324Z,7.80
2023-04-06T06:07:11.023Z,6.97
2023-04-06T06:09:44.451Z,7.53
2023-04-06T06:12:23.161Z,7.80
2023-04-06T06:15:06.447Z,6.57
2023-04-06T06:17:39.773Z,7.47
2023-04-06T06:20:10.388Z,9.40
2023-04-06T06:22:38.140Z,9.73
2023-04-06T06:25:06.783Z,8.63
2023-04-06T06:27:34.425Z,8.70
2023-04-06T06:30:01.876Z,7.40
2023-04-06T06:34:59.922Z,7.25
2023-04-06T06:37:30.697Z,7.78
2023-04-06T06:39:58.836Z,6.78
2023-04-06T06:42:26.315Z,7.65
2023-04-06T06:45:05.312Z,7.20
2023-04-06T06:47:32.676Z,7.72
2023-04-06T06:50:00.042Z,7.55
2023-04-06T06:52:27.359Z,7.95
2023-04-06T06:54:56.436Z,7.20
2023-04-06T06:59:52.084Z,7.57
2023-04-06T07:02:21.326Z,7.43
2023-04-06T07:04:51.826Z,7.70
2023-04-06T07:07:19.239Z,6.25
2023-04-06T07:09:46.575Z,7.10
2023-04-06T07:12:13.866Z,8.10
2023-04-06T07:14:41.757Z,8.18
2023-04-06T07:17:09.233Z,6.97
2023-04-06T07:19:36.915Z,7.38
2023-04-06T07:22:04.861Z,7.22
2023-04-06T07:24:32.234Z,7.13
2023-04-06T07:27:01.597Z,8.43
2023-04-06T07:29:29.421Z,7.18
2023-04-06T07:31:57.127Z,7.32
2023-04-06T07:34:25.017Z,7.63
2023-04-06T07:36:54.683Z,7.45
2023-04-06T07:39:22.022Z,6.88
2023-04-06T07:41:49.290Z,8.40
2023-04-06T07:44:17.332Z,7.22
2023-04-06T07:46:44.681Z,8.27
2023-04-06T07:49:12.155Z,7.63
2023-04-06T07:51:40.278Z,6.40
2023-04-06T07:54:08.199Z,6.57
2023-04-06T07:56:35.627Z,6.13
2023-04-06T07:59:03.983Z,6.13
2023-04-06T08:01:31.574Z,6.22
2023-04-06T08:03:59.485Z,6.05
2023-04-06T08:06:27.257Z,6.40
2023-04-06T08:08:54.607Z,6.10
2023-04-06T08:11:22.435Z,7.25
2023-04-06T08:13:49.762Z,6.03
2023-04-06T08:16:17.099Z,6.45
2023-04-06T08:18:44.479Z,6.55
2023-04-06T08:21:11.982Z,6.40
2023-04-06T08:23:39.183Z,6.50
2023-04-06T08:26:06.580Z,6.75
2023-04-06T08:28:35.431Z,6.03
2023-04-06T08:31:06.573Z,7.50
2023-04-06T08:33:37.612Z,6.32
2023-04-06T08:36:15.537Z,5.97
2023-04-06T08:38:43.973Z,6.43
2023-04-06T08:41:12.395Z,7.07
2023-04-06T08:43:42.961Z,6.30
2023-04-06T08:46:11.505Z,6.40
2023-04-06T08:48:40.986Z,6.90
2023-04-06T08:51:08.395Z,6.60
2023-04-06T08:53:35.909Z,6.28
2023-04-06T08:56:18.668Z,6.95
2023-04-06T08:58:46.090Z,6.75
2023-04-06T09:01:16.492Z,6.63
2023-04-06T09:03:58.736Z,6.75
2023-04-06T09:06:29.530Z,7.53
2023-04-06T09:08:57.629Z,5.80
2023-04-06T09:11:24.925Z,6.85
2023-04-06T09:13:57.155Z,6.50
2023-04-06T09:16:24.596Z,6.25
2023-04-06T09:18:51.856Z,7.38
2023-04-06T09:21:20.936Z,6.63
2023-04-06T09:23:49.746Z,6.88
2023-04-06T09:26:21.118Z,6.55
2023-04-06T09:28:58.603Z,5.65
2023-04-06T09:31:27.990Z,6.72
2023-04-06T09:33:55.948Z,6.53
2023-04-06T09:36:39.453Z,6.32
2023-04-06T09:39:06.700Z,5.88
2023-04-06T09:41:34.906Z,6.65
2023-04-06T09:44:06.237Z,5.60
2023-04-06T09:46:51.228Z,6.10
2023-04-06T09:49:26.084Z,6.10
2023-04-06T09:51:58.696Z,5.85
2023-04-06T09:54:29.439Z,6.03
2023-04-06T09:57:12.604Z,5.20
2023-04-06T09:59:41.519Z,5.38
2023-04-06T10:02:10.338Z,4.80
2023-04-06T10:04:37.564Z,5.57
2023-04-06T10:07:06.474Z,5.47
2023-04-06T10:09:37.104Z,5.80
2023-04-06T10:12:06.148Z,5.28
2023-04-06T10:14:36.681Z,4.80
2023-04-06T10:17:04.464Z,4.72
2023-04-06T10:20:07.655Z,6.63
2023-04-06T10:22:43.768Z,5.72
2023-04-06T10:25:11.136Z,5.68
2023-04-06T10:27:38.393Z,5.70
2023-04-06T10:30:07.476Z,5.68
2023-04-06T10:32:38.841Z,6.30
2023-04-06T10:35:14.066Z,6.05
2023-04-06T10:37:49.331Z,5.72
2023-04-06T10:40:27.138Z,5.18
2023-04-06T10:42:55.413Z,6.20
2023-04-06T10:45:24.538Z,5.70
2023-04-06T10:47:54.147Z,6.50
2023-04-06T10:50:21.526Z,6.10
2023-04-06T10:52:48.983Z,7.00
2023-04-06T10:55:16.609Z,7.20
2023-04-06T10:57:43.926Z,6.47
2023-04-06T11:00:13.574Z,6.38
2023-04-06T11:02:40.882Z,6.85
2023-04-06T11:05:08.627Z,6.20
2023-04-06T11:07:35.950Z,6.53
2023-04-06T11:15:07.872Z,6.30
2023-04-06T11:17:38.514Z,7.05
2023-04-06T11:20:06.511Z,7.18
2023-04-06T11:22:33.800Z,6.78
2023-04-06T11:27:36.464Z,6.97
2023-04-06T11:30:04.329Z,7.05
2023-04-06T11:32:31.810Z,7.53
2023-04-06T11:34:59.608Z,7.47
2023-04-06T11:37:29.171Z,6.55
2023-04-06T11:39:58.161Z,6.65
2023-04-06T11:42:26.492Z,7.82
2023-04-06T11:44:55.974Z,8.98
2023-04-06T11:47:29.412Z,7.77
2023-04-06T11:49:57.392Z,7.65
2023-04-06T11:52:25.889Z,6.95
2023-04-06T11:54:53.911Z,8.52
2023-04-06T11:57:24.311Z,7.60
2023-04-06T12:02:19.000Z,7.55
2023-04-06T12:04:46.408Z,7.72
2023-04-06T12:07:13.721Z,7.28
2023-04-06T12:09:41.040Z,8.45
2023-04-06T12:12:08.398Z,8.15
2023-04-06T12:14:40.501Z,8.13
2023-04-06T12:17:07.938Z,7.85
2023-04-06T12:19:35.521Z,7.93
2023-04-06T12:22:02.874Z,8.02
2023-04-06T12:24:30.517Z,7.57
2023-04-06T12:27:08.795Z,7.70
2023-04-06T12:29:37.065Z,7.72
2023-04-06T12:32:04.352Z,7.10
2023-04-06T12:34:31.607Z,7.90
2023-04-06T12:36:59.030Z,7.70
2023-04-06T12:39:26.436Z,6.80
2023-04-06T12:41:54.050Z,6.45
2023-04-06T12:44:21.288Z,6.45
2023-04-06T12:46:48.643Z,7.03
2023-04-06T12:49:17.864Z,6.72
2023-04-06T12:51:45.126Z,6.47
2023-04-06T12:54:12.972Z,7.03
2023-04-06T12:56:40.587Z,6.60
2023-04-06T12:59:08.328Z,6.03
2023-04-06T13:01:35.867Z,5.80
2023-04-06T13:04:03.465Z,4.70
2023-04-06T13:06:31.300Z,6.25
2023-04-06T13:08:58.552Z,6.47
2023-04-06T13:11:28.254Z,6.90
2023-04-06T13:13:56.004Z,6.82
2023-04-06T13:16:23.531Z,6.28
2023-04-06T13:18:51.260Z,6.35
2023-04-06T13:21:18.660Z,5.90
2023-04-06T13:23:46.111Z,6.63
2023-04-06T13:26:14.703Z,6.43
2023-04-06T13:28:42.632Z,6.25
2023-04-06T13:31:10.904Z,5.43
2023-04-06T13:33:38.504Z,5.30
2023-04-06T13:36:06.030Z,5.88
2023-04-06T13:38:34.594Z,6.75
2023-04-06T13:41:01.947Z,6.68
2023-04-06T13:43:29.223Z,6.40
2023-04-06T13:45:58.956Z,6.45
2023-04-06T13:48:27.053Z,6.03
2023-04-06T13:50:54.835Z,5.50
2023-04-06T13:53:22.132Z,5.50
2023-04-06T13:55:56.128Z,6.28
2023-04-06T13:58:23.533Z,5.60
2023-04-06T14:00:50.965Z,6.20
2023-04-06T14:03:18.511Z,5.93
2023-04-06T14:06:05.111Z,6.13
2023-04-06T14:08:36.768Z,5.75
2023-04-06T14:11:04.052Z,5.93
2023-04-06T14:13:31.499Z,5.75
2023-04-06T14:15:58.771Z,5.32
2023-04-06T14:18:26.013Z,5.53
2023-04-06T14:20:59.874Z,5.63
2023-04-06T14:23:27.496Z,5.60
2023-04-06T14:26:04.995Z,5.93
2023-04-06T14:28:32.935Z,5.97
2023-04-06T14:31:16.407Z,5.30
2023-04-06T14:33:44.479Z,5.93
2023-04-06T14:36:28.545Z,5.57
2023-04-06T14:38:56.105Z,5.25
2023-04-06T14:41:24.096Z,5.60
2023-04-06T14:43:53.532Z,5.38
2023-04-06T14:46:20.922Z,4.90
2023-04-06T14:49:02.809Z,4.93
2023-04-06T14:51:30.185Z,4.93
2023-04-06T14:53:57.768Z,5.78
2023-04-06T14:56:25.775Z,5.72
2023-04-06T14:58:53.333Z,4.57
2023-04-06T15:01:21.988Z,5.93
2023-04-06T15:03:49.892Z,5.60
2023-04-06T15:06:20.432Z,6.10
2023-04-06T15:09:03.705Z,5.65
2023-04-06T15:11:31.199Z,4.60
2023-04-06T15:13:58.455Z,4.97
2023-04-06T15:16:26.464Z,5.70
2023-04-06T15:18:53.796Z,4.80
2023-04-06T15:21:21.619Z,3.88
2023-04-06T15:23:49.131Z,4.22
2023-04-06T15:26:16.481Z,4.38
2023-04-06T15:28:44.749Z,4.07
2023-04-06T15:31:32.945Z,3.85
2023-04-06T15:34:03.747Z,4.30
2023-04-06T15:36:31.377Z,4.15
2023-04-06T15:38:58.929Z,4.28
2023-04-06T15:41:27.049Z,3.88
2023-04-06T15:43:54.814Z,3.70
2023-04-06T15:46:22.324Z,3.72
2023-04-06T15:48:49.618Z,4.32
2023-04-06T15:51:17.774Z,3.72
2023-04-06T15:53:45.521Z,3.67
2023-04-06T15:56:14.431Z,3.67
2023-04-06T15:58:42.050Z,3.67
2023-04-06T16:01:15.746Z,3.47
2023-04-06T16:03:43.433Z,3.63
2023-04-06T16:06:11.189Z,3.55
2023-04-06T16:08:39.483Z,3.85
2023-04-06T16:11:06.916Z,3.63
2023-04-06T16:13:34.234Z,2.70
2023-04-06T16:16:01.536Z,3.20
2023-04-06T16:18:29.281Z,3.40
2023-04-06T16:20:56.503Z,3.63
2023-04-06T16:23:23.764Z,3.65
2023-04-06T16:25:51.103Z,3.90
2023-04-06T16:28:18.495Z,4.25
2023-04-06T16:30:46.757Z,4.47
2023-04-06T16:33:17.006Z,3.28
2023-04-06T16:35:45.524Z,4.00
2023-04-06T16:38:13.376Z,3.13
2023-04-06T16:40:48.877Z,3.65
2023-04-06T16:43:16.171Z,3.75
2023-04-06T16:45:44.220Z,4.90
2023-04-06T16:48:22.027Z,4.68
2023-04-06T16:50:49.346Z,5.15
2023-04-06T16:53:16.641Z,4.68
2023-04-06T16:55:43.924Z,5.18
2023-04-06T16:58:11.363Z,5.90
2023-04-06T17:00:38.618Z,5.65
2023-04-06T17:03:06.113Z,6.15
2023-04-06T17:05:37.433Z,6.07
2023-04-06T17:08:06.008Z,6.50
2023-04-06T17:10:37.286Z,6.57
2023-04-06T17:13:08.942Z,7.03
2023-04-06T17:15:36.416Z,7.43
2023-04-06T17:18:03.749Z,6.43
2023-04-06T17:20:31.019Z,6.82
2023-04-06T17:22:58.257Z,7.78
2023-04-06T17:25:25.869Z,6.18
2023-04-06T17:27:56.718Z,6.55
2023-04-06T17:30:24.307Z,6.35
2023-04-06T17:32:51.952Z,7.32
2023-04-06T17:35:33.536Z,6.35
2023-04-06T17:38:02.177Z,6.55
2023-04-06T17:40:29.425Z,6.18
2023-04-06T17:42:56.686Z,6.25
2023-04-06T17:45:23.935Z,6.00
2023-04-06T17:47:51.193Z,5.97
2023-04-06T17:50:18.465Z,7.22
2023-04-06T17:55:13.568Z,7.60
2023-04-06T17:57:43.258Z,7.10
2023-04-06T18:00:12.237Z,6.80
2023-04-06T18:02:39.789Z,7.05
2023-04-06T18:05:07.638Z,7.32
2023-04-06T18:07:34.877Z,6.80
2023-04-06T18:10:02.432Z,7.03
2023-04-06T18:12:29.688Z,7.25
2023-04-06T18:14:56.993Z,6.07
2023-04-06T18:17:24.238Z,6.57
2023-04-06T18:19:51.499Z,7.75
2023-04-06T18:22:19.609Z,7.22
2023-04-06T18:24:46.931Z,9.25
2023-04-06T18:27:14.247Z,6.45
2023-04-06T18:29:43.770Z,6.90
2023-04-06T18:32:10.972Z,6.40
2023-04-06T18:34:39.378Z,7.28
2023-04-06T18:37:06.620Z,7.45
2023-04-06T18:39:33.899Z,8.40
2023-04-06T18:42:01.162Z,10.43
2023-04-06T18:44:28.437Z,8.88
2023-04-06T18:46:56.120Z,8.40
2023-04-06T18:49:23.507Z,8.15
2023-04-06T18:51:50.827Z,7.57
2023-04-06T18:54:18.108Z,5.90
2023-04-06T18:56:45.324Z,6.70
2023-04-06T18:59:13.390Z,6.28
2023-04-06T19:01:43.773Z,6.53
2023-04-06T19:04:11.783Z,6.97
2023-04-06T19:06:39.369Z,6.93
2023-04-06T19:09:07.635Z,7.22
2023-04-06T19:11:34.923Z,6.63
2023-04-06T19:14:02.199Z,7.18
2023-04-06T19:16:29.579Z,6.47
2023-04-06T19:18:57.018Z,7.45
2023-04-06T19:21:26.237Z,6.18
2023-04-06T19:23:57.193Z,7.35
2023-04-06T19:26:27.861Z,6.90
2023-04-06T19:31:22.148Z,7.32
2023-04-06T19:33:49.559Z,8.02
2023-04-06T19:36:17.181Z,7.50
2023-04-06T19:38:44.519Z,7.25
2023-04-06T19:41:11.834Z,7.53
2023-04-06T19:43:39.141Z,6.60
2023-04-06T19:46:06.430Z,6.97
2023-04-06T19:48:34.017Z,6.60
2023-04-06T19:51:01.497Z,7.38
2023-04-06T19:53:28.786Z,6.82
2023-04-06T19:55:56.036Z,7.13
2023-04-06T19:58:23.859Z,6.25
2023-04-06T20:00:51.180Z,6.93
2023-04-06T20:03:18.749Z,7.00
2023-04-06T20:05:46.832Z,7.55
2023-04-06T20:08:14.341Z,7.03
2023-04-06T20:10:41.813Z,7.75
2023-04-06T20:13:09.072Z,7.15
2023-04-06T20:15:36.472Z,7.57
2023-04-06T20:18:03.890Z,7.00
2023-04-06T20:20:31.305Z,7.53
2023-04-06T20:22:58.655Z,7.28
2023-04-06T20:25:26.683Z,7.63
2023-04-06T20:27:54.362Z,7.53
2023-04-06T20:30:21.804Z,7.38
2023-04-06T20:32:49.127Z,8.13
2023-04-06T20:35:16.500Z,7.97
2023-04-06T20:37:43.730Z,6.95
2023-04-06T20:40:12.154Z,8.57
2023-04-06T20:42:39.714Z,8.40
2023-04-06T20:45:07.341Z,7.85
2023-04-06T20:47:34.761Z,8.45
2023-04-06T20:50:02.256Z,8.20
2023-04-06T20:52:29.492Z,8.35
2023-04-06T20:54:57.425Z,9.05
2023-04-06T20:57:27.953Z,7.93
2023-04-06T20:59:55.366Z,7.85
2023-04-06T21:02:22.825Z,8.20
2023-04-06T21:04:50.317Z,8.90
2023-04-06T21:07:17.559Z,9.07
2023-04-06T21:09:44.845Z,7.47
2023-04-06T21:12:12.120Z,8.88
2023-04-06T21:14:39.390Z,8.55
2023-04-06T21:17:06.959Z,8.52
2023-04-06T21:19:34.223Z,7.88
2023-04-06T21:22:01.740Z,7.53
2023-04-06T21:24:29.000Z,8.15
2023-04-06T21:26:56.224Z,7.60
2023-04-06T21:29:23.505Z,9.05
2023-04-06T21:31:50.885Z,8.35
2023-04-06T21:34:18.548Z,7.95
2023-04-06T21:36:46.002Z,8.27
2023-04-06T21:39:13.675Z,7.85
2023-04-06T21:41:41.021Z,7.93
2023-04-06T21:44:08.447Z,7.43
2023-04-06T21:46:35.687Z,7.13
2023-04-06T21:49:02.993Z,7.88
2023-04-06T21:51:30.194Z,8.07
2023-04-06T21:53:57.426Z,8.18
2023-04-06T21:56:25.934Z,7.03
2023-04-06T21:58:53.611Z,8.30
2023-04-06T22:01:21.243Z,7.80
2023-04-06T22:03:48.768Z,7.72
2023-04-06T22:06:16.321Z,7.25
2023-04-06T22:08:47.617Z,7.28
2023-04-06T22:11:14.937Z,7.93
2023-04-06T22:13:42.212Z,7.88
2023-04-06T22:16:09.546Z,8.05
2023-04-06T22:18:39.197Z,7.40
2023-04-06T22:21:07.055Z,8.18
2023-04-06T22:23:34.427Z,8.57
2023-04-06T22:26:01.698Z,7.70
2023-04-06T22:28:29.156Z,7.70
2023-04-06T22:30:56.469Z,8.45
2023-04-06T22:33:23.732Z,8.20
2023-04-06T22:35:50.998Z,8.63
2023-04-06T22:38:18.259Z,7.85
2023-04-06T22:40:45.556Z,7.68
2023-04-06T22:43:12.831Z,8.38
2023-04-06T22:45:40.080Z,9.13
2023-04-06T22:48:07.343Z,7.82
2023-04-06T22:50:34.682Z,7.45
2023-04-06T22:53:02.422Z,7.68
2023-04-06T22:55:29.643Z,8.38
2023-04-06T22:57:56.924Z,8.20
2023-04-06T23:00:24.277Z,7.85
2023-04-06T23:02:51.708Z,8.40
2023-04-06T23:05:19.051Z,8.73
2023-04-06T23:07:46.341Z,8.05
2023-04-06T23:10:14.130Z,8.07
2023-04-06T23:12:41.344Z,9.00
2023-04-06T23:15:08.928Z,8.45
2023-04-06T23:17:36.229Z,9.10
2023-04-06T23:20:03.618Z,8.52
2023-04-06T23:22:31.193Z,8.77
2023-04-06T23:24:58.436Z,9.07
2023-04-06T23:27:25.849Z,8.05
2023-04-06T23:29:53.169Z,8.35
2023-04-06T23:32:20.418Z,9.35
2023-04-06T23:34:47.720Z,8.85
2023-04-06T23:37:14.968Z,7.93
2023-04-06T23:39:42.890Z,8.93
2023-04-06T23:42:10.414Z,8.75
2023-04-06T23:44:37.699Z,8.40
2023-04-06T23:47:04.943Z,7.82
2023-04-06T23:49:32.188Z,9.30
2023-04-06T23:51:59.437Z,9.65
2023-04-06T23:54:27.121Z,9.73
2023-04-06T23:56:54.391Z,8.40
2023-04-06T23:59:21.653Z,9.77
